Airfield :
LOGIN :

Register | Disclaimer

   EN    FR    IT 

 










Legend :    VFR   Marginal VFR   IFR   Intensive IFR   Very Intensive IFR
Visi :
Ceiling :
>= 8 km
>= 3000ft
5 to 8 km
1000 to 3000 ft
1500m to 5 km
500 to 1000 ft
800 to 1500m
200 to 500 ft
< 800m
< 200 ft
Symbols :   Thunderstorms  Fog  Heavy snow  Heavy precipitations  Wind > 20 kt
SIGMETs :     Misc.  Thunderstorms  Icing  Turbulence  Mountain Waves  Volcanic Ashes






- Airport Elevation : 195 ft


LFMY - Salon de Provence

CURRENT METAR :
  • 281600Z AUTO 22010KT 9999 // NSC 25/12 Q1020

EXPIRED METARs :
  • 281530Z AUTO 24011KT 200V270 9999 // NSC 26/13 Q1021
  • 281500Z AUTO 24011KT 200V270 9999 // NSC 26/13 Q1021
  • 281430Z AUTO 24012KT 210V290 9999 // NSC 26/13 Q1021
  • 281400Z AUTO 26010KT 230V310 9999 // NSC 27/13 Q1021
  • 281330Z AUTO 27007G21KT 210V360 9999 // NSC 28/15 Q1021

TAF TAF LFMY
Valid from the 28 at 15:00 until the 29 at 15:00 UTC


281400Z 2815/2915 24012KT CAVOK
TEMPO 2815/2819 24015G25KT
BECMG 2819/2821 21005KT
BECMG 2822/2824 VRB03KT
BECMG 2909/2911 20012KT
TEMPO 2912/2915 4000 SHRA SCT035TCU
PROB30
TEMPO 2912/2915 2000 TSRA SCT030CB



MET'MAP, your aeronautical weather chart ! - Copyright ORBIFLY December 2007 - Disclaimer

ORBIFLY MET'MAP TEAM :

Programming & Development : Alexandra Zaïnal
Concept & original design : Baudouin d'Aumeries
Assistance for programming : Marc-Olivier Méhu
Technical & hardware support : Manuel Goepfert

Contact : metmap@orbifly.com




SOURCES & CREDITS :

   NOAA